sensor_id;sensor_type;location;lat;lon;timestamp;pressure;altitude;pressure_sealevel;temperature;humidity
58092;BME280;43896;48.178;11.578;2024-02-26T00:00:32;94128.94;;;4.78;66.78
58092;BME280;43896;48.178;11.578;2024-02-26T00:03:00;94080.28;;;4.62;64.20
58092;BME280;43896;48.178;11.578;2024-02-26T00:05:25;94093.00;;;4.49;65.97
58092;BME280;43896;48.178;11.578;2024-02-26T00:07:50;94137.97;;;5.23;64.07
58092;BME280;43896;48.178;11.578;2024-02-26T00:10:16;94086.47;;;5.25;63.10
58092;BME280;43896;48.178;11.578;2024-02-26T00:12:41;94108.28;;;4.60;64.44
58092;BME280;43896;48.178;11.578;2024-02-26T00:15:08;94055.78;;;3.99;65.41
58092;BME280;43896;48.178;11.578;2024-02-26T00:17:33;94126.69;;;4.34;65.64
58092;BME280;43896;48.178;11.578;2024-02-26T00:19:59;94113.81;;;4.32;65.12
58092;BME280;43896;48.178;11.578;2024-02-26T00:22:26;94130.59;;;4.30;65.73
58092;BME280;43896;48.178;11.578;2024-02-26T00:24:51;94077.88;;;4.53;63.69
58092;BME280;43896;48.178;11.578;2024-02-26T00:27:16;94134.81;;;4.31;65.64
58092;BME280;43896;48.178;11.578;2024-02-26T00:29:42;94109.91;;;4.12;65.78
58092;BME280;43896;48.178;11.578;2024-02-26T00:32:07;94044.03;;;3.95;64.56
58092;BME280;43896;48.178;11.578;2024-02-26T00:34:33;94060.00;;;4.25;64.30
58092;BME280;43896;48.178;11.578;2024-02-26T00:36:58;94109.59;;;4.15;65.62
58092;BME280;43896;48.178;11.578;2024-02-26T00:39:23;94126.66;;;4.09;67.02
58092;BME280;43896;48.178;11.578;2024-02-26T00:41:49;94085.00;;;3.85;66.82
58092;BME280;43896;48.178;11.578;2024-02-26T00:44:16;94123.22;;;4.09;66.33
58092;BME280;43896;48.178;11.578;2024-02-26T00:46:42;94129.78;;;4.21;66.13
58092;BME280;43896;48.178;11.578;2024-02-26T00:49:07;94100.13;;;4.80;65.31
58092;BME280;43896;48.178;11.578;2024-02-26T00:51:32;94124.91;;;5.40;62.68
58092;BME280;43896;48.178;11.578;2024-02-26T00:53:58;94122.50;;;5.14;62.98
58092;BME280;43896;48.178;11.578;2024-02-26T00:56:23;94121.78;;;4.80;64.44
58092;BME280;43896;48.178;11.578;2024-02-26T00:58:49;94097.78;;;5.57;61.28
58092;BME280;43896;48.178;11.578;2024-02-26T01:01:14;94112.81;;;6.10;60.01
58092;BME280;43896;48.178;11.578;2024-02-26T01:03:39;94055.94;;;5.42;59.87
58092;BME280;43896;48.178;11.578;2024-02-26T01:06:05;94109.88;;;4.86;63.25
58092;BME280;43896;48.178;11.578;2024-02-26T01:08:30;94121.31;;;4.44;64.86
58092;BME280;43896;48.178;11.578;2024-02-26T01:10:57;94032.94;;;3.52;65.78
58092;BME280;43896;48.178;11.578;2024-02-26T01:13:22;94015.75;;;4.00;64.21
58092;BME280;43896;48.178;11.578;2024-02-26T01:15:48;94056.28;;;4.92;61.87
58092;BME280;43896;48.178;11.578;2024-02-26T01:18:13;94110.34;;;5.85;59.84
58092;BME280;43896;48.178;11.578;2024-02-26T01:20:39;94132.72;;;6.11;58.85
58092;BME280;43896;48.178;11.578;2024-02-26T01:23:04;94102.13;;;5.96;58.91
58092;BME280;43896;48.178;11.578;2024-02-26T01:25:29;94040.47;;;5.72;58.66
58092;BME280;43896;48.178;11.578;2024-02-26T01:27:55;94032.56;;;5.57;59.02
58092;BME280;43896;48.178;11.578;2024-02-26T01:30:20;94118.75;;;6.04;59.21
58092;BME280;43896;48.178;11.578;2024-02-26T01:32:46;94093.41;;;5.41;60.16
58092;BME280;43896;48.178;11.578;2024-02-26T01:35:11;94108.53;;;5.86;59.15
58092;BME280;43896;48.178;11.578;2024-02-26T01:37:37;94078.13;;;4.99;60.58
58092;BME280;43896;48.178;11.578;2024-02-26T01:40:03;94083.50;;;4.97;61.42
58092;BME280;43896;48.178;11.578;2024-02-26T01:42:31;94111.38;;;4.15;63.29
58092;BME280;43896;48.178;11.578;2024-02-26T01:44:58;94109.22;;;4.84;62.90
58092;BME280;43896;48.178;11.578;2024-02-26T01:47:24;94085.16;;;3.91;63.18
58092;BME280;43896;48.178;11.578;2024-02-26T01:49:50;94076.38;;;4.66;62.45
58092;BME280;43896;48.178;11.578;2024-02-26T01:52:16;94110.63;;;5.59;59.81
58092;BME280;43896;48.178;11.578;2024-02-26T01:54:44;94106.69;;;5.63;59.50
58092;BME280;43896;48.178;11.578;2024-02-26T01:57:11;94039.97;;;5.45;58.47
58092;BME280;43896;48.178;11.578;2024-02-26T01:59:38;94015.75;;;4.00;61.41
58092;BME280;43896;48.178;11.578;2024-02-26T02:02:07;94103.72;;;4.79;61.69
58092;BME280;43896;48.178;11.578;2024-02-26T02:04:34;94042.09;;;3.81;62.90
58092;BME280;43896;48.178;11.578;2024-02-26T02:07:01;94103.72;;;4.29;63.09
58092;BME280;43896;48.178;11.578;2024-02-26T02:09:27;94008.94;;;3.74;63.10
58092;BME280;43896;48.178;11.578;2024-02-26T02:11:53;94079.66;;;3.94;63.88
58092;BME280;43896;48.178;11.578;2024-02-26T02:14:19;94084.69;;;3.88;64.20
58092;BME280;43896;48.178;11.578;2024-02-26T02:16:44;94092.31;;;3.89;64.16
58092;BME280;43896;48.178;11.578;2024-02-26T02:19:10;94102.59;;;4.32;61.72
58092;BME280;43896;48.178;11.578;2024-02-26T02:21:35;94012.81;;;3.46;63.47
58092;BME280;43896;48.178;11.578;2024-02-26T02:24:00;94038.06;;;4.03;61.78
58092;BME280;43896;48.178;11.578;2024-02-26T02:26:26;94053.81;;;5.06;59.15
58092;BME280;43896;48.178;11.578;2024-02-26T02:28:52;94055.28;;;3.96;61.75
58092;BME280;43896;48.178;11.578;2024-02-26T02:31:18;94099.47;;;4.04;62.25
58092;BME280;43896;48.178;11.578;2024-02-26T02:33:44;94089.38;;;3.84;63.31
58092;BME280;43896;48.178;11.578;2024-02-26T02:36:10;94084.38;;;3.91;63.41
58092;BME280;43896;48.178;11.578;2024-02-26T02:38:37;94029.75;;;3.99;61.79
58092;BME280;43896;48.178;11.578;2024-02-26T02:41:03;94083.56;;;3.90;62.35
58092;BME280;43896;48.178;11.578;2024-02-26T02:43:28;94080.75;;;3.75;64.00
58092;BME280;43896;48.178;11.578;2024-02-26T02:45:54;94096.25;;;4.43;62.53
58092;BME280;43896;48.178;11.578;2024-02-26T02:48:19;93986.34;;;4.80;58.83
58092;BME280;43896;48.178;11.578;2024-02-26T02:50:45;94087.97;;;5.59;57.32
58092;BME280;43896;48.178;11.578;2024-02-26T02:53:10;94043.88;;;4.54;59.61
58092;BME280;43896;48.178;11.578;2024-02-26T02:55:36;94014.63;;;3.86;60.01
58092;BME280;43896;48.178;11.578;2024-02-26T02:58:01;94015.13;;;3.73;60.74
58092;BME280;43896;48.178;11.578;2024-02-26T03:00:27;94015.97;;;4.79;58.43
58092;BME280;43896;48.178;11.578;2024-02-26T03:02:52;94050.50;;;4.81;58.22
58092;BME280;43896;48.178;11.578;2024-02-26T03:05:18;94095.72;;;4.80;59.60
58092;BME280;43896;48.178;11.578;2024-02-26T03:07:43;94035.25;;;3.80;60.62
58092;BME280;43896;48.178;11.578;2024-02-26T03:10:09;94009.41;;;3.53;61.59
58092;BME280;43896;48.178;11.578;2024-02-26T03:12:34;94067.28;;;3.80;61.45
58092;BME280;43896;48.178;11.578;2024-02-26T03:15:00;94074.81;;;5.13;58.25
58092;BME280;43896;48.178;11.578;2024-02-26T03:17:29;94055.88;;;4.63;59.33
58092;BME280;43896;48.178;11.578;2024-02-26T03:19:55;94041.63;;;4.26;60.38
58092;BME280;43896;48.178;11.578;2024-02-26T03:22:20;94067.47;;;4.53;59.97
58092;BME280;43896;48.178;11.578;2024-02-26T03:24:46;94014.53;;;5.16;57.69
58092;BME280;43896;48.178;11.578;2024-02-26T03:27:12;94071.72;;;5.49;57.31
58092;BME280;43896;48.178;11.578;2024-02-26T03:29:38;94063.50;;;5.92;55.26
58092;BME280;43896;48.178;11.578;2024-02-26T03:32:04;94068.69;;;5.37;57.24
58092;BME280;43896;48.178;11.578;2024-02-26T03:34:30;94080.63;;;4.35;60.18
58092;BME280;43896;48.178;11.578;2024-02-26T03:37:00;94081.28;;;3.96;60.69
58092;BME280;43896;48.178;11.578;2024-02-26T03:39:25;94089.38;;;3.84;61.67
58092;BME280;43896;48.178;11.578;2024-02-26T03:41:50;93996.31;;;3.12;62.45
58092;BME280;43896;48.178;11.578;2024-02-26T03:44:16;94074.84;;;3.49;62.64
58092;BME280;43896;48.178;11.578;2024-02-26T03:46:41;94074.59;;;3.68;62.71
58092;BME280;43896;48.178;11.578;2024-02-26T03:49:10;94057.69;;;3.72;62.26
58092;BME280;43896;48.178;11.578;2024-02-26T03:51:35;94049.06;;;3.64;62.04
58092;BME280;43896;48.178;11.578;2024-02-26T03:54:01;94022.53;;;3.35;62.75
58092;BME280;43896;48.178;11.578;2024-02-26T03:56:26;93984.84;;;3.31;61.49
58092;BME280;43896;48.178;11.578;2024-02-26T03:58:52;94017.88;;;4.21;60.20
58092;BME280;43896;48.178;11.578;2024-02-26T04:01:18;94013.16;;;4.97;57.71
58092;BME280;43896;48.178;11.578;2024-02-26T04:03:43;94068.00;;;5.75;56.54
58092;BME280;43896;48.178;11.578;2024-02-26T04:06:09;94069.00;;;5.34;57.59
58092;BME280;43896;48.178;11.578;2024-02-26T04:08:43;93993.00;;;4.10;59.97
58092;BME280;43896;48.178;11.578;2024-02-26T04:11:08;94073.56;;;4.93;59.19
58092;BME280;43896;48.178;11.578;2024-02-26T04:13:34;94010.25;;;4.03;60.33
58092;BME280;43896;48.178;11.578;2024-02-26T04:16:00;94060.66;;;4.35;60.71
58092;BME280;43896;48.178;11.578;2024-02-26T04:18:27;94010.25;;;4.20;60.58
58092;BME280;43896;48.178;11.578;2024-02-26T04:20:53;94022.28;;;3.88;60.77
58092;BME280;43896;48.178;11.578;2024-02-26T04:23:19;94034.75;;;5.14;58.41
58092;BME280;43896;48.178;11.578;2024-02-26T04:25:44;94042.78;;;5.36;57.01
58092;BME280;43896;48.178;11.578;2024-02-26T04:28:10;94012.72;;;4.77;58.22
58092;BME280;43896;48.178;11.578;2024-02-26T04:30:35;94071.06;;;4.27;61.10
58092;BME280;43896;48.178;11.578;2024-02-26T04:33:00;94084.38;;;4.24;61.30
58092;BME280;43896;48.178;11.578;2024-02-26T04:35:26;94055.59;;;4.25;60.23
58092;BME280;43896;48.178;11.578;2024-02-26T04:37:51;94067.94;;;4.56;59.86
58092;BME280;43896;48.178;11.578;2024-02-26T04:40:16;94068.47;;;5.16;58.30
58092;BME280;43896;48.178;11.578;2024-02-26T04:42:42;94059.50;;;5.50;56.84
58092;BME280;43896;48.178;11.578;2024-02-26T04:45:07;94062.72;;;5.20;57.50
58092;BME280;43896;48.178;11.578;2024-02-26T04:47:34;94088.75;;;3.99;61.36
58092;BME280;43896;48.178;11.578;2024-02-26T04:49:59;94090.50;;;3.65;61.83
58092;BME280;43896;48.178;11.578;2024-02-26T04:52:25;94018.69;;;3.05;62.72
58092;BME280;43896;48.178;11.578;2024-02-26T04:54:50;94004.56;;;4.00;59.83
58092;BME280;43896;48.178;11.578;2024-02-26T04:57:16;94010.41;;;4.10;58.45
58092;BME280;43896;48.178;11.578;2024-02-26T04:59:44;94006.31;;;3.58;60.78
58092;BME280;43896;48.178;11.578;2024-02-26T05:02:10;93997.13;;;3.13;63.03
58092;BME280;43896;48.178;11.578;2024-02-26T05:04:35;94046.34;;;4.06;60.68
58092;BME280;43896;48.178;11.578;2024-02-26T05:07:01;94045.00;;;3.69;60.90
58092;BME280;43896;48.178;11.578;2024-02-26T05:09:26;94063.94;;;5.01;57.96
58092;BME280;43896;48.178;11.578;2024-02-26T05:11:51;93982.72;;;4.89;56.20
58092;BME280;43896;48.178;11.578;2024-02-26T05:14:17;94068.84;;;5.67;55.52
58092;BME280;43896;48.178;11.578;2024-02-26T05:16:42;94034.56;;;5.55;56.26
58092;BME280;43896;48.178;11.578;2024-02-26T05:19:07;94078.75;;;5.49;56.50
58092;BME280;43896;48.178;11.578;2024-02-26T05:21:33;94030.94;;;4.85;58.66
58092;BME280;43896;48.178;11.578;2024-02-26T05:23:59;94081.28;;;5.17;58.22
58092;BME280;43896;48.178;11.578;2024-02-26T05:26:24;94053.47;;;5.10;57.65
58092;BME280;43896;48.178;11.578;2024-02-26T05:28:50;94059.94;;;5.22;57.49
58092;BME280;43896;48.178;11.578;2024-02-26T05:31:16;94036.69;;;5.12;56.77
58092;BME280;43896;48.178;11.578;2024-02-26T05:33:41;94048.13;;;5.03;57.51
58092;BME280;43896;48.178;11.578;2024-02-26T05:36:07;94034.00;;;4.97;56.96
58092;BME280;43896;48.178;11.578;2024-02-26T05:38:33;94056.88;;;5.18;56.51
58092;BME280;43896;48.178;11.578;2024-02-26T05:40:59;94092.25;;;5.52;56.50
58092;BME280;43896;48.178;11.578;2024-02-26T05:43:25;94093.06;;;5.53;56.48
58092;BME280;43896;48.178;11.578;2024-02-26T05:45:50;94097.00;;;5.49;57.29
58092;BME280;43896;48.178;11.578;2024-02-26T05:48:16;94077.91;;;5.48;56.99
58092;BME280;43896;48.178;11.578;2024-02-26T05:50:41;94020.59;;;5.08;57.02
58092;BME280;43896;48.178;11.578;2024-02-26T05:53:06;94095.19;;;5.49;56.12
58092;BME280;43896;48.178;11.578;2024-02-26T05:55:32;94025.00;;;5.00;56.50
58092;BME280;43896;48.178;11.578;2024-02-26T05:57:57;94070.97;;;5.32;56.70
58092;BME280;43896;48.178;11.578;2024-02-26T06:00:23;94095.81;;;5.51;57.54
58092;BME280;43896;48.178;11.578;2024-02-26T06:02:48;94096.22;;;5.40;57.39
58092;BME280;43896;48.178;11.578;2024-02-26T06:05:14;94056.84;;;5.26;57.35
58092;BME280;43896;48.178;11.578;2024-02-26T06:07:39;94050.31;;;5.31;57.23
58092;BME280;43896;48.178;11.578;2024-02-26T06:10:05;94033.25;;;4.72;58.24
58092;BME280;43896;48.178;11.578;2024-02-26T06:12:30;94064.47;;;4.80;58.30
58092;BME280;43896;48.178;11.578;2024-02-26T06:14:56;94111.16;;;5.46;58.16
58092;BME280;43896;48.178;11.578;2024-02-26T06:17:21;94108.97;;;5.66;57.56
58092;BME280;43896;48.178;11.578;2024-02-26T06:19:47;94121.16;;;5.74;57.28
58092;BME280;43896;48.178;11.578;2024-02-26T06:22:12;94127.97;;;5.83;57.47
58092;BME280;43896;48.178;11.578;2024-02-26T06:24:38;94127.13;;;5.82;57.06
58092;BME280;43896;48.178;11.578;2024-02-26T06:27:03;94088.78;;;5.60;57.17
58092;BME280;43896;48.178;11.578;2024-02-26T06:29:29;94106.03;;;5.69;57.49
58092;BME280;43896;48.178;11.578;2024-02-26T06:31:54;94138.41;;;5.83;56.70
58092;BME280;43896;48.178;11.578;2024-02-26T06:34:20;94080.69;;;5.47;56.92
58092;BME280;43896;48.178;11.578;2024-02-26T06:36:46;94109.59;;;5.68;56.66
58092;BME280;43896;48.178;11.578;2024-02-26T06:39:12;94138.63;;;6.05;56.27
58092;BME280;43896;48.178;11.578;2024-02-26T06:41:38;94154.44;;;6.57;65.28
58092;BME280;43896;48.178;11.578;2024-02-26T06:44:04;94159.72;;;6.72;60.18
58092;BME280;43896;48.178;11.578;2024-02-26T06:46:30;94070.69;;;5.90;54.59
58092;BME280;43896;48.178;11.578;2024-02-26T06:48:56;94087.75;;;6.24;53.93
58092;BME280;43896;48.178;11.578;2024-02-26T06:51:21;94158.88;;;6.72;53.48
58092;BME280;43896;48.178;11.578;2024-02-26T06:53:47;94088.69;;;6.08;53.79
58092;BME280;43896;48.178;11.578;2024-02-26T06:56:13;94173.06;;;6.54;53.72
58092;BME280;43896;48.178;11.578;2024-02-26T06:58:38;94172.47;;;6.21;54.83
58092;BME280;43896;48.178;11.578;2024-02-26T07:01:03;94091.03;;;5.94;53.95
58092;BME280;43896;48.178;11.578;2024-02-26T07:03:29;94108.94;;;6.06;53.99
58092;BME280;43896;48.178;11.578;2024-02-26T07:05:55;94105.41;;;6.22;53.63
58092;BME280;43896;48.178;11.578;2024-02-26T07:08:21;94174.34;;;6.59;53.75
58092;BME280;43896;48.178;11.578;2024-02-26T07:10:46;94177.56;;;5.75;55.38
58092;BME280;43896;48.178;11.578;2024-02-26T07:13:12;94114.97;;;5.75;54.99
58092;BME280;43896;48.178;11.578;2024-02-26T07:15:37;94131.63;;;6.05;54.58
58092;BME280;43896;48.178;11.578;2024-02-26T07:18:02;94115.28;;;5.32;56.00
58092;BME280;43896;48.178;11.578;2024-02-26T07:20:31;94157.22;;;5.06;58.00
58092;BME280;43896;48.178;11.578;2024-02-26T07:22:57;94191.44;;;4.62;59.62
58092;BME280;43896;48.178;11.578;2024-02-26T07:25:23;94125.53;;;4.53;59.85
58092;BME280;43896;48.178;11.578;2024-02-26T07:27:49;94165.31;;;5.28;57.96
58092;BME280;43896;48.178;11.578;2024-02-26T07:30:15;94145.56;;;4.61;59.00
58092;BME280;43896;48.178;11.578;2024-02-26T07:32:42;94189.06;;;5.89;56.85
58092;BME280;43896;48.178;11.578;2024-02-26T07:35:07;94118.63;;;5.97;54.61
58092;BME280;43896;48.178;11.578;2024-02-26T07:37:33;94183.97;;;6.58;54.05
58092;BME280;43896;48.178;11.578;2024-02-26T07:39:58;94182.44;;;5.78;55.45
58092;BME280;43896;48.178;11.578;2024-02-26T07:42:23;94185.25;;;6.08;55.80
58092;BME280;43896;48.178;11.578;2024-02-26T07:44:49;94141.41;;;5.16;56.75
58092;BME280;43896;48.178;11.578;2024-02-26T07:47:14;94151.53;;;4.86;59.15
58092;BME280;43896;48.178;11.578;2024-02-26T07:49:40;94142.13;;;4.36;59.85
58092;BME280;43896;48.178;11.578;2024-02-26T07:52:06;94180.06;;;4.71;58.74
58092;BME280;43896;48.178;11.578;2024-02-26T07:54:31;94114.28;;;5.41;56.57
58092;BME280;43896;48.178;11.578;2024-02-26T07:56:56;94197.72;;;6.52;55.31
58092;BME280;43896;48.178;11.578;2024-02-26T07:59:22;94158.06;;;6.25;54.55
58092;BME280;43896;48.178;11.578;2024-02-26T08:01:51;94169.59;;;5.68;57.20
58092;BME280;43896;48.178;11.578;2024-02-26T08:04:16;94130.06;;;6.19;54.92
58092;BME280;43896;48.178;11.578;2024-02-26T08:06:42;94173.31;;;6.45;54.15
58092;BME280;43896;48.178;11.578;2024-02-26T08:09:08;94122.88;;;5.02;57.81
58092;BME280;43896;48.178;11.578;2024-02-26T08:11:33;94175.47;;;5.62;57.67
58092;BME280;43896;48.178;11.578;2024-02-26T08:13:59;94152.94;;;5.30;57.37
58092;BME280;43896;48.178;11.578;2024-02-26T08:16:24;94173.66;;;5.15;58.02
58092;BME280;43896;48.178;11.578;2024-02-26T08:18:50;94148.31;;;4.84;58.27
58092;BME280;43896;48.178;11.578;2024-02-26T08:21:15;94141.44;;;4.83;58.10
58092;BME280;43896;48.178;11.578;2024-02-26T08:23:43;94206.69;;;5.31;58.51
58092;BME280;43896;48.178;11.578;2024-02-26T08:26:08;94182.50;;;5.61;57.97
58092;BME280;43896;48.178;11.578;2024-02-26T08:28:37;94170.09;;;6.03;55.70
58092;BME280;43896;48.178;11.578;2024-02-26T08:31:02;94184.84;;;7.11;53.38
58092;BME280;43896;48.178;11.578;2024-02-26T08:33:28;94124.84;;;6.80;53.12
58092;BME280;43896;48.178;11.578;2024-02-26T08:35:53;94177.72;;;6.67;54.23
58092;BME280;43896;48.178;11.578;2024-02-26T08:38:19;94182.91;;;6.21;55.97
58092;BME280;43896;48.178;11.578;2024-02-26T08:40:44;94211.09;;;7.18;53.44
58092;BME280;43896;48.178;11.578;2024-02-26T08:43:10;94237.78;;;7.28;53.26
58092;BME280;43896;48.178;11.578;2024-02-26T08:45:35;94168.75;;;7.38;51.62
58092;BME280;43896;48.178;11.578;2024-02-26T08:48:00;94165.94;;;6.17;55.62
58092;BME280;43896;48.178;11.578;2024-02-26T08:50:26;94204.72;;;6.28;55.68
58092;BME280;43896;48.178;11.578;2024-02-26T08:52:51;94202.75;;;5.99;56.56
58092;BME280;43896;48.178;11.578;2024-02-26T08:55:18;94236.38;;;6.25;56.89
58092;BME280;43896;48.178;11.578;2024-02-26T08:57:44;94170.38;;;5.77;56.95
58092;BME280;43896;48.178;11.578;2024-02-26T09:00:10;94240.22;;;7.30;54.48
58092;BME280;43896;48.178;11.578;2024-02-26T09:02:36;94238.47;;;7.07;53.92
58092;BME280;43896;48.178;11.578;2024-02-26T09:05:04;94220.03;;;7.24;53.78
58092;BME280;43896;48.178;11.578;2024-02-26T09:07:31;94137.69;;;6.90;52.37
58092;BME280;43896;48.178;11.578;2024-02-26T09:09:56;94174.09;;;7.06;52.66
58092;BME280;43896;48.178;11.578;2024-02-26T09:12:22;94232.56;;;6.90;54.00
58092;BME280;43896;48.178;11.578;2024-02-26T09:14:47;94224.25;;;7.25;53.42
58092;BME280;43896;48.178;11.578;2024-02-26T09:17:13;94171.41;;;6.30;53.17
58092;BME280;43896;48.178;11.578;2024-02-26T09:19:38;94186.25;;;6.99;53.08
58092;BME280;43896;48.178;11.578;2024-02-26T09:22:04;94201.78;;;7.68;51.64
58092;BME280;43896;48.178;11.578;2024-02-26T09:24:29;94223.06;;;7.65;52.76
58092;BME280;43896;48.178;11.578;2024-02-26T09:26:55;94227.56;;;7.57;52.94
58092;BME280;43896;48.178;11.578;2024-02-26T09:29:20;94173.78;;;7.24;52.46
58092;BME280;43896;48.178;11.578;2024-02-26T09:31:46;94153.88;;;7.53;51.23
58092;BME280;43896;48.178;11.578;2024-02-26T09:34:14;94199.84;;;8.07;50.86
58092;BME280;43896;48.178;11.578;2024-02-26T09:36:40;94232.22;;;8.21;51.50
58092;BME280;43896;48.178;11.578;2024-02-26T09:39:05;94210.63;;;8.34;50.03
58092;BME280;43896;48.178;11.578;2024-02-26T09:41:33;94225.66;;;8.10;50.38
58092;BME280;43896;48.178;11.578;2024-02-26T09:43:58;94189.25;;;8.67;49.78
58092;BME280;43896;48.178;11.578;2024-02-26T09:46:26;94227.72;;;8.15;50.90
58092;BME280;43896;48.178;11.578;2024-02-26T09:48:52;94175.88;;;8.25;49.73
58092;BME280;43896;48.178;11.578;2024-02-26T09:51:18;94190.34;;;8.57;49.71
58092;BME280;43896;48.178;11.578;2024-02-26T09:53:45;94216.31;;;8.74;50.25
58092;BME280;43896;48.178;11.578;2024-02-26T09:56:12;94171.66;;;8.82;49.40
58092;BME280;43896;48.178;11.578;2024-02-26T09:58:41;94173.88;;;8.85;49.63
58092;BME280;43896;48.178;11.578;2024-02-26T10:01:12;94219.69;;;10.02;47.96
58092;BME280;43896;48.178;11.578;2024-02-26T10:03:40;94139.06;;;9.54;47.83
58092;BME280;43896;48.178;11.578;2024-02-26T10:06:08;94162.97;;;9.38;47.75
58092;BME280;43896;48.178;11.578;2024-02-26T10:08:35;94206.56;;;10.57;45.88
58092;BME280;43896;48.178;11.578;2024-02-26T10:11:02;94176.69;;;9.68;47.89
58092;BME280;43896;48.178;11.578;2024-02-26T10:13:28;94174.41;;;9.58;48.10
58092;BME280;43896;48.178;11.578;2024-02-26T10:15:53;94167.22;;;10.16;46.96
58092;BME280;43896;48.178;11.578;2024-02-26T10:18:18;94212.44;;;10.04;47.30
58092;BME280;43896;48.178;11.578;2024-02-26T10:21:03;94201.22;;;9.54;49.29
58092;BME280;43896;48.178;11.578;2024-02-26T10:23:29;94219.53;;;9.19;50.27
58092;BME280;43896;48.178;11.578;2024-02-26T10:25:54;94200.38;;;8.97;50.55
58092;BME280;43896;48.178;11.578;2024-02-26T10:28:20;94218.06;;;9.10;51.75
58092;BME280;43896;48.178;11.578;2024-02-26T10:30:45;94150.31;;;9.13;51.51
58092;BME280;43896;48.178;11.578;2024-02-26T10:33:12;94198.50;;;9.12;51.99
58092;BME280;43896;48.178;11.578;2024-02-26T10:35:39;94201.28;;;9.32;52.73
58092;BME280;43896;48.178;11.578;2024-02-26T10:38:07;94182.41;;;9.79;50.83
58092;BME280;43896;48.178;11.578;2024-02-26T10:40:32;94186.88;;;10.26;49.97
58092;BME280;43896;48.178;11.578;2024-02-26T10:42:58;94169.97;;;10.49;49.04
58092;BME280;43896;48.178;11.578;2024-02-26T10:45:23;94158.72;;;10.13;48.26
58092;BME280;43896;48.178;11.578;2024-02-26T10:47:48;94186.00;;;10.61;47.35
58092;BME280;43896;48.178;11.578;2024-02-26T10:50:14;94128.97;;;10.88;46.11
58092;BME280;43896;48.178;11.578;2024-02-26T10:52:43;94147.91;;;10.43;45.79
58092;BME280;43896;48.178;11.578;2024-02-26T10:55:16;94188.53;;;10.34;47.49
58092;BME280;43896;48.178;11.578;2024-02-26T10:57:45;94105.81;;;10.23;45.57
58092;BME280;43896;48.178;11.578;2024-02-26T11:00:14;94182.38;;;10.88;45.28
58092;BME280;43896;48.178;11.578;2024-02-26T11:02:41;94194.31;;;11.38;44.00
58092;BME280;43896;48.178;11.578;2024-02-26T11:05:07;94168.03;;;11.11;44.26
58092;BME280;43896;48.178;11.578;2024-02-26T11:07:36;94203.41;;;11.95;43.25
58092;BME280;43896;48.178;11.578;2024-02-26T11:10:03;94213.41;;;12.32;42.50
58092;BME280;43896;48.178;11.578;2024-02-26T11:12:30;94187.00;;;11.73;43.65
58092;BME280;43896;48.178;11.578;2024-02-26T11:14:56;94200.53;;;12.10;43.56
58092;BME280;43896;48.178;11.578;2024-02-26T11:17:26;94221.22;;;12.00;43.82
58092;BME280;43896;48.178;11.578;2024-02-26T11:19:53;94212.94;;;11.56;43.96
58092;BME280;43896;48.178;11.578;2024-02-26T11:22:20;94179.47;;;11.83;42.21
58092;BME280;43896;48.178;11.578;2024-02-26T11:24:48;94200.56;;;11.70;42.81
58092;BME280;43896;48.178;11.578;2024-02-26T11:27:15;94211.91;;;11.77;43.66
58092;BME280;43896;48.178;11.578;2024-02-26T11:29:51;94179.56;;;11.43;43.85
58092;BME280;43896;48.178;11.578;2024-02-26T11:32:17;94208.91;;;11.54;42.92
58092;BME280;43896;48.178;11.578;2024-02-26T11:34:44;94189.25;;;11.50;42.78
58092;BME280;43896;48.178;11.578;2024-02-26T11:37:16;94224.75;;;12.32;42.16
58092;BME280;43896;48.178;11.578;2024-02-26T11:39:43;94231.53;;;12.01;42.72
58092;BME280;43896;48.178;11.578;2024-02-26T11:42:13;94138.56;;;11.81;42.67
58092;BME280;43896;48.178;11.578;2024-02-26T11:44:39;94185.47;;;13.26;39.69
58092;BME280;43896;48.178;11.578;2024-02-26T11:47:23;94190.69;;;12.76;40.61
58092;BME280;43896;48.178;11.578;2024-02-26T11:49:49;94227.47;;;12.64;41.35
58092;BME280;43896;48.178;11.578;2024-02-26T11:52:15;94179.16;;;12.25;41.47
58092;BME280;43896;48.178;11.578;2024-02-26T11:54:49;94185.53;;;12.49;41.20
58092;BME280;43896;48.178;11.578;2024-02-26T11:57:30;94208.00;;;13.79;39.14
58092;BME280;43896;48.178;11.578;2024-02-26T12:00:13;94189.31;;;13.56;38.84
58092;BME280;43896;48.178;11.578;2024-02-26T12:02:52;94180.13;;;12.76;40.36
58092;BME280;43896;48.178;11.578;2024-02-26T12:05:24;94181.78;;;13.02;40.18
58092;BME280;43896;48.178;11.578;2024-02-26T12:07:55;94200.84;;;14.05;39.21
58092;BME280;43896;48.178;11.578;2024-02-26T12:10:30;94212.13;;;13.94;39.15
58092;BME280;43896;48.178;11.578;2024-02-26T12:13:10;94193.16;;;14.71;37.88
58092;BME280;43896;48.178;11.578;2024-02-26T12:15:39;94211.16;;;13.88;38.00
58092;BME280;43896;48.178;11.578;2024-02-26T12:18:06;94149.50;;;13.25;38.92
58092;BME280;43896;48.178;11.578;2024-02-26T12:20:36;94205.31;;;13.36;39.65
58092;BME280;43896;48.178;11.578;2024-02-26T12:23:05;94196.56;;;13.10;40.24
58092;BME280;43896;48.178;11.578;2024-02-26T12:25:31;94189.81;;;12.82;40.95
58092;BME280;43896;48.178;11.578;2024-02-26T12:27:58;94194.72;;;12.79;41.46
58092;BME280;43896;48.178;11.578;2024-02-26T12:30:25;94186.22;;;13.08;41.73
58092;BME280;43896;48.178;11.578;2024-02-26T12:32:55;94195.72;;;12.84;42.08
58092;BME280;43896;48.178;11.578;2024-02-26T12:35:26;94165.00;;;12.58;42.32
58092;BME280;43896;48.178;11.578;2024-02-26T12:37:54;94199.34;;;12.90;41.97
58092;BME280;43896;48.178;11.578;2024-02-26T12:40:20;94201.94;;;13.22;42.00
58092;BME280;43896;48.178;11.578;2024-02-26T12:42:46;94220.38;;;13.03;43.15
58092;BME280;43896;48.178;11.578;2024-02-26T12:45:12;94222.34;;;13.08;42.35
58092;BME280;43896;48.178;11.578;2024-02-26T12:47:39;94190.19;;;12.86;41.30
58092;BME280;43896;48.178;11.578;2024-02-26T12:50:05;94246.44;;;12.86;41.41
58092;BME280;43896;48.178;11.578;2024-02-26T12:52:37;94235.19;;;12.66;42.27